createdAt,value
2018-01-30T00:00:16.814Z,8.87
2018-01-30T00:00:42.934Z,8.84
2018-01-30T00:01:09.029Z,8.79
2018-01-30T00:01:35.131Z,8.79
2018-01-30T00:02:01.231Z,8.89
2018-01-30T00:02:27.328Z,8.85
2018-01-30T00:02:53.440Z,8.87
2018-01-30T00:03:19.538Z,8.82
2018-01-30T00:03:45.642Z,8.82
2018-01-30T00:04:11.742Z,8.79
2018-01-30T00:04:37.837Z,8.85
2018-01-30T00:05:03.941Z,8.94
2018-01-30T00:05:30.039Z,8.85
2018-01-30T00:05:56.136Z,8.89
2018-01-30T00:06:22.255Z,8.85
2018-01-30T00:06:48.352Z,8.91
2018-01-30T00:07:14.461Z,8.92
2018-01-30T00:07:40.558Z,8.92
2018-01-30T00:08:06.664Z,8.73
2018-01-30T00:08:32.757Z,8.85
2018-01-30T00:08:58.858Z,8.82
2018-01-30T00:09:24.956Z,8.82
2018-01-30T00:09:51.066Z,8.91
2018-01-30T00:10:17.164Z,8.84
2018-01-30T00:10:43.260Z,8.88
2018-01-30T00:11:09.363Z,8.88
2018-01-30T00:11:35.465Z,8.88
2018-01-30T00:12:01.567Z,8.88
2018-01-30T00:12:27.664Z,9.02
2018-01-30T00:12:53.768Z,9
2018-01-30T00:13:19.870Z,8.92
2018-01-30T00:13:45.978Z,8.94
2018-01-30T00:14:12.069Z,8.97
2018-01-30T00:14:38.175Z,9
2018-01-30T00:15:04.271Z,9.03
2018-01-30T00:15:30.369Z,9.02
2018-01-30T00:15:56.475Z,9.02
2018-01-30T00:16:22.571Z,8.99
2018-01-30T00:16:48.675Z,9.03
2018-01-30T00:17:14.772Z,9.06
2018-01-30T00:17:40.876Z,8.91
2018-01-30T00:18:06.981Z,9
2018-01-30T00:18:33.079Z,8.95
2018-01-30T00:18:59.183Z,8.92
2018-01-30T00:19:25.279Z,8.97
2018-01-30T00:19:51.380Z,8.97
2018-01-30T00:20:17.484Z,8.87
2018-01-30T00:20:43.583Z,8.88
2018-01-30T00:21:09.706Z,8.92
2018-01-30T00:21:35.808Z,8.88
2018-01-30T00:22:01.905Z,8.95
2018-01-30T00:22:28.000Z,9
2018-01-30T00:22:54.103Z,8.88
2018-01-30T00:23:20.205Z,8.88
2018-01-30T00:23:46.306Z,8.99
2018-01-30T00:24:12.406Z,8.99
2018-01-30T00:24:38.511Z,8.97
2018-01-30T00:25:04.614Z,8.97
2018-01-30T00:25:30.712Z,8.99
2018-01-30T00:25:56.830Z,8.82
2018-01-30T00:26:22.944Z,8.94
2018-01-30T00:26:49.044Z,8.94
2018-01-30T00:27:15.146Z,8.85
2018-01-30T00:27:41.244Z,8.95
2018-01-30T00:28:07.373Z,8.89
2018-01-30T00:28:33.472Z,8.95
2018-01-30T00:28:59.577Z,9.02
2018-01-30T00:29:25.683Z,8.97
2018-01-30T00:29:51.780Z,9.02
2018-01-30T00:30:17.888Z,8.95
2018-01-30T00:30:43.986Z,8.95
2018-01-30T00:31:10.082Z,8.88
2018-01-30T00:31:36.188Z,8.97
2018-01-30T00:32:02.286Z,8.94
2018-01-30T00:32:28.406Z,9.03
2018-01-30T00:32:54.510Z,8.88
2018-01-30T00:33:20.626Z,9.06
2018-01-30T00:33:46.725Z,9
2018-01-30T00:34:12.831Z,9
2018-01-30T00:34:38.927Z,9.06
2018-01-30T00:35:05.033Z,9.03
2018-01-30T00:35:31.154Z,8.99
2018-01-30T00:35:57.251Z,9.03
2018-01-30T00:36:23.350Z,9.04
2018-01-30T00:36:49.454Z,9.1
2018-01-30T00:37:15.551Z,9.11
2018-01-30T00:37:41.651Z,9.11
2018-01-30T00:38:07.755Z,9.04
2018-01-30T00:38:33.859Z,9.02
2018-01-30T00:38:59.967Z,9.04
2018-01-30T00:39:26.073Z,9.03
2018-01-30T00:39:52.176Z,9.16
2018-01-30T00:40:18.280Z,9.11
2018-01-30T00:40:44.381Z,9.04
2018-01-30T00:41:10.499Z,9.02
2018-01-30T00:41:36.598Z,9.02
2018-01-30T00:42:02.704Z,9
2018-01-30T00:42:28.798Z,9.02
2018-01-30T00:42:54.901Z,9
2018-01-30T00:43:21.004Z,9.1
2018-01-30T00:43:47.103Z,9.08
2018-01-30T00:44:13.197Z,9.04
2018-01-30T00:44:39.308Z,9.04
2018-01-30T00:45:05.400Z,9.03
2018-01-30T00:45:31.508Z,8.95
2018-01-30T00:45:57.604Z,9.03
2018-01-30T00:46:23.710Z,9
2018-01-30T00:46:49.812Z,8.95
2018-01-30T00:47:15.907Z,8.89
2018-01-30T00:47:42.005Z,9.03
2018-01-30T00:48:08.126Z,9.02
2018-01-30T00:48:34.228Z,8.99
2018-01-30T00:49:00.333Z,8.97
2018-01-30T00:49:26.434Z,8.99
2018-01-30T00:49:52.546Z,8.89
2018-01-30T00:50:18.648Z,8.92
2018-01-30T00:50:44.745Z,9.03
2018-01-30T00:51:10.850Z,8.95
2018-01-30T00:51:36.946Z,9
2018-01-30T00:52:03.050Z,8.88
2018-01-30T00:52:29.155Z,9
2018-01-30T00:52:55.253Z,8.99
2018-01-30T00:53:21.355Z,9.02
2018-01-30T00:53:47.452Z,8.99
2018-01-30T00:54:13.560Z,8.94
2018-01-30T00:54:39.664Z,9.03
2018-01-30T00:55:05.761Z,9.02
2018-01-30T00:55:31.864Z,8.95
2018-01-30T00:55:57.961Z,8.91
2018-01-30T00:56:24.060Z,9.04
2018-01-30T00:56:50.165Z,8.95
2018-01-30T00:57:16.259Z,8.91
2018-01-30T00:57:42.377Z,8.95
2018-01-30T00:58:08.481Z,8.92
2018-01-30T00:58:34.575Z,8.91
2018-01-30T00:59:00.683Z,8.82
2018-01-30T00:59:26.779Z,8.87
2018-01-30T00:59:52.896Z,8.84
2018-01-30T01:00:19.003Z,8.81
2018-01-30T01:00:45.103Z,8.91
2018-01-30T01:01:11.218Z,8.85
2018-01-30T01:01:37.317Z,8.82
2018-01-30T01:02:03.420Z,8.94
2018-01-30T01:02:29.523Z,8.94
2018-01-30T01:02:55.622Z,8.87
2018-01-30T01:03:21.726Z,8.82
2018-01-30T01:03:47.824Z,8.81
2018-01-30T01:04:13.928Z,8.81
2018-01-30T01:04:40.024Z,8.73
2018-01-30T01:05:06.124Z,8.79
2018-01-30T01:05:32.229Z,8.87
2018-01-30T01:05:58.328Z,8.79
2018-01-30T01:06:24.433Z,8.81
2018-01-30T01:06:50.536Z,8.81
2018-01-30T01:07:16.634Z,8.91
2018-01-30T01:07:42.730Z,8.85
2018-01-30T01:08:08.833Z,8.82
2018-01-30T01:08:34.927Z,8.85
2018-01-30T01:09:01.037Z,8.84
2018-01-30T01:09:27.136Z,8.81
2018-01-30T01:09:53.242Z,8.76
2018-01-30T01:10:19.340Z,8.74
2018-01-30T01:10:45.445Z,8.71
2018-01-30T01:11:11.541Z,8.73
2018-01-30T01:11:37.645Z,8.71
2018-01-30T01:12:03.765Z,8.63
2018-01-30T01:12:29.865Z,8.6
2018-01-30T01:12:55.977Z,8.66
2018-01-30T01:13:22.082Z,8.64
2018-01-30T01:13:48.187Z,8.63
2018-01-30T01:14:14.283Z,8.55
2018-01-30T01:14:40.382Z,8.53
2018-01-30T01:15:06.486Z,8.51
2018-01-30T01:15:32.587Z,8.52
2018-01-30T01:15:58.683Z,8.45
2018-01-30T01:16:24.780Z,8.55
2018-01-30T01:16:50.884Z,8.61
2018-01-30T01:17:16.983Z,8.67
2018-01-30T01:17:43.089Z,8.63
2018-01-30T01:18:09.185Z,8.66
2018-01-30T01:18:35.288Z,8.61
2018-01-30T01:19:01.407Z,8.6
2018-01-30T01:19:27.501Z,8.67
2018-01-30T01:19:53.603Z,8.61
2018-01-30T01:20:19.700Z,8.64
2018-01-30T01:20:45.803Z,8.64
2018-01-30T01:21:11.909Z,8.61
2018-01-30T01:21:38.012Z,8.67
2018-01-30T01:22:04.113Z,8.61
2018-01-30T01:22:30.213Z,8.61
2018-01-30T01:22:56.323Z,8.67
2018-01-30T01:23:22.422Z,8.71
2018-01-30T01:23:48.531Z,8.66
2018-01-30T01:24:14.630Z,8.61
2018-01-30T01:24:40.728Z,8.67
2018-01-30T01:25:06.824Z,8.64
2018-01-30T01:25:32.924Z,8.61
2018-01-30T01:25:59.019Z,8.56
2018-01-30T01:26:25.127Z,8.58
2018-01-30T01:26:51.245Z,8.51
2018-01-30T01:27:17.355Z,8.51
2018-01-30T01:27:43.449Z,8.45
2018-01-30T01:28:09.549Z,8.46
2018-01-30T01:28:35.654Z,8.44
2018-01-30T01:29:01.752Z,8.42
2018-01-30T01:29:27.872Z,8.46
2018-01-30T01:29:53.970Z,8.48
2018-01-30T01:30:20.069Z,8.44
2018-01-30T01:30:46.176Z,8.36
2018-01-30T01:31:12.272Z,8.37
2018-01-30T01:31:38.375Z,8.42
2018-01-30T01:32:04.478Z,8.45
2018-01-30T01:32:30.574Z,8.45
2018-01-30T01:32:56.677Z,8.45
2018-01-30T01:33:22.774Z,8.48
2018-01-30T01:33:48.873Z,8.46
2018-01-30T01:34:14.995Z,8.61
2018-01-30T01:34:41.113Z,8.51
2018-01-30T01:35:07.210Z,8.51
2018-01-30T01:35:33.327Z,8.61
2018-01-30T01:35:59.432Z,8.66
2018-01-30T01:36:25.530Z,8.61
2018-01-30T01:36:51.630Z,8.67
2018-01-30T01:37:17.735Z,8.61
2018-01-30T01:37:43.846Z,8.66
2018-01-30T01:38:09.953Z,8.6
2018-01-30T01:38:36.045Z,8.63
2018-01-30T01:39:02.145Z,8.58
2018-01-30T01:39:28.246Z,8.61
2018-01-30T01:39:54.348Z,8.52
2018-01-30T01:40:20.467Z,8.51
2018-01-30T01:40:46.570Z,8.48
2018-01-30T01:41:12.667Z,8.51
2018-01-30T01:41:38.765Z,8.38
2018-01-30T01:42:04.870Z,8.38
2018-01-30T01:42:30.966Z,8.36
2018-01-30T01:42:57.066Z,8.42
2018-01-30T01:43:23.170Z,8.37
2018-01-30T01:43:49.292Z,8.38
2018-01-30T01:44:15.418Z,8.34
2018-01-30T01:44:41.524Z,8.37
2018-01-30T01:45:07.628Z,8.3
2018-01-30T01:45:33.724Z,8.31
2018-01-30T01:45:59.827Z,8.3
2018-01-30T01:46:25.923Z,8.3
2018-01-30T01:46:52.025Z,8.3
2018-01-30T01:47:18.122Z,8.31
2018-01-30T01:47:44.224Z,8.34
2018-01-30T01:48:10.329Z,8.33
2018-01-30T01:48:36.428Z,8.28
2018-01-30T01:49:02.533Z,8.31
2018-01-30T01:49:28.633Z,8.33
2018-01-30T01:49:54.748Z,8.33
2018-01-30T01:50:20.849Z,8.33
2018-01-30T01:50:46.951Z,8.33
2018-01-30T01:51:13.051Z,8.31
2018-01-30T01:51:39.149Z,8.37
2018-01-30T01:52:05.265Z,8.31
2018-01-30T01:52:31.369Z,8.34
2018-01-30T01:52:57.473Z,8.36
2018-01-30T01:53:23.573Z,8.36
2018-01-30T01:53:49.682Z,8.38
2018-01-30T01:54:15.798Z,8.41
2018-01-30T01:54:41.900Z,8.41
2018-01-30T01:55:07.998Z,8.37
2018-01-30T01:55:34.096Z,8.33
2018-01-30T01:56:00.201Z,8.31
2018-01-30T01:56:26.299Z,8.36
2018-01-30T01:56:52.409Z,8.38
2018-01-30T01:57:18.540Z,8.41
2018-01-30T01:57:44.641Z,8.33
2018-01-30T01:58:10.743Z,8.33
2018-01-30T01:58:36.839Z,8.31
2018-01-30T01:59:02.942Z,8.24
2018-01-30T01:59:29.038Z,8.31
2018-01-30T01:59:55.141Z,8.26
2018-01-30T02:00:21.244Z,8.23
2018-01-30T02:00:47.344Z,8.2
2018-01-30T02:01:13.451Z,8.18
2018-01-30T02:01:39.547Z,8.2
2018-01-30T02:02:05.667Z,8.13
2018-01-30T02:02:31.762Z,8.27
2018-01-30T02:02:57.867Z,8.3
2018-01-30T02:03:23.968Z,8.26
2018-01-30T02:03:50.064Z,8.31
2018-01-30T02:04:16.163Z,8.38
2018-01-30T02:04:42.265Z,8.27
2018-01-30T02:05:08.366Z,8.28
2018-01-30T02:05:34.464Z,8.28
2018-01-30T02:06:00.569Z,8.34
2018-01-30T02:06:26.665Z,8.31
2018-01-30T02:06:52.770Z,8.3
2018-01-30T02:07:18.869Z,8.31
2018-01-30T02:07:44.965Z,8.33
2018-01-30T02:08:11.070Z,8.16
2018-01-30T02:08:37.173Z,8.23
2018-01-30T02:09:03.286Z,8.27
2018-01-30T02:09:29.391Z,8.16
2018-01-30T02:09:55.488Z,8.15
2018-01-30T02:10:21.600Z,8.2
2018-01-30T02:10:47.702Z,8.19
2018-01-30T02:11:13.808Z,8.19
2018-01-30T02:11:39.906Z,8.19
2018-01-30T02:12:06.019Z,8.12
2018-01-30T02:12:32.124Z,8.13
2018-01-30T02:12:58.224Z,8.15
2018-01-30T02:13:24.327Z,8.08
2018-01-30T02:13:50.430Z,8.06
2018-01-30T02:14:16.532Z,8.08
2018-01-30T02:14:42.631Z,8.1
2018-01-30T02:15:08.735Z,8.1
2018-01-30T02:15:34.829Z,8.16
2018-01-30T02:16:00.938Z,8.15
2018-01-30T02:16:27.058Z,8.1
2018-01-30T02:16:53.151Z,8.15
2018-01-30T02:17:19.248Z,8.13
2018-01-30T02:17:45.346Z,8.13
2018-01-30T02:18:11.448Z,8.19
2018-01-30T02:18:37.547Z,8.05
2018-01-30T02:19:03.650Z,8.03
2018-01-30T02:19:29.754Z,8.12
2018-01-30T02:19:55.846Z,8.05
2018-01-30T02:20:21.952Z,8.06
2018-01-30T02:20:48.050Z,8.06
2018-01-30T02:21:14.151Z,8.12
2018-01-30T02:21:40.253Z,8.09
2018-01-30T02:22:06.348Z,8.12
2018-01-30T02:22:32.442Z,8.13
2018-01-30T02:22:58.547Z,8.2
2018-01-30T02:23:24.646Z,8.08
2018-01-30T02:23:50.754Z,8
2018-01-30T02:24:16.856Z,8
2018-01-30T02:24:42.951Z,7.98
2018-01-30T02:25:09.055Z,7.94
2018-01-30T02:25:35.154Z,8.06
2018-01-30T02:26:01.252Z,8.03
2018-01-30T02:26:27.359Z,7.94
2018-01-30T02:26:53.455Z,7.83
2018-01-30T02:27:19.560Z,7.79
2018-01-30T02:27:45.662Z,7.79
2018-01-30T02:28:11.759Z,7.82
2018-01-30T02:28:37.858Z,7.85
2018-01-30T02:29:03.960Z,7.73
2018-01-30T02:29:30.059Z,7.79
2018-01-30T02:29:56.162Z,7.73
2018-01-30T02:30:22.265Z,7.72
2018-01-30T02:30:48.363Z,7.73
2018-01-30T02:31:14.470Z,7.69
2018-01-30T02:31:40.568Z,7.67
2018-01-30T02:32:06.664Z,7.66
2018-01-30T02:32:32.768Z,7.85
2018-01-30T02:32:58.871Z,7.79
2018-01-30T02:33:24.967Z,7.8
2018-01-30T02:33:51.071Z,7.95
2018-01-30T02:34:17.188Z,7.9
2018-01-30T02:34:43.285Z,7.97
2018-01-30T02:35:09.386Z,7.95
2018-01-30T02:35:35.485Z,7.97
2018-01-30T02:36:01.605Z,7.93
2018-01-30T02:36:27.703Z,7.87
2018-01-30T02:36:53.798Z,7.72
2018-01-30T02:37:19.905Z,7.7
2018-01-30T02:37:46.003Z,7.77
2018-01-30T02:38:12.110Z,7.63
2018-01-30T02:38:38.226Z,7.61
2018-01-30T02:39:04.327Z,7.66
2018-01-30T02:39:30.428Z,7.6
2018-01-30T02:39:56.548Z,7.54
2018-01-30T02:40:22.654Z,7.67
2018-01-30T02:40:48.774Z,7.67
2018-01-30T02:41:14.868Z,7.53
2018-01-30T02:41:40.966Z,7.69
2018-01-30T02:42:07.065Z,7.66
2018-01-30T02:42:33.167Z,7.61
2018-01-30T02:42:59.270Z,7.63
2018-01-30T02:43:25.382Z,7.6
2018-01-30T02:43:51.478Z,7.56
2018-01-30T02:44:17.578Z,7.57
2018-01-30T02:44:43.682Z,7.6
2018-01-30T02:45:09.781Z,7.5
2018-01-30T02:45:35.887Z,7.51
2018-01-30T02:46:01.991Z,7.58
2018-01-30T02:46:28.087Z,7.43
2018-01-30T02:46:54.207Z,7.5
2018-01-30T02:47:20.302Z,7.54
2018-01-30T02:47:46.401Z,7.43
2018-01-30T02:48:12.504Z,7.48
2018-01-30T02:48:38.600Z,7.51
2018-01-30T02:49:04.703Z,7.51
2018-01-30T02:49:30.800Z,7.6
2018-01-30T02:49:56.900Z,7.58
2018-01-30T02:50:23.005Z,7.6
2018-01-30T02:50:49.101Z,7.53
2018-01-30T02:51:15.198Z,7.48
2018-01-30T02:51:41.345Z,7.51
2018-01-30T02:52:07.405Z,7.54
2018-01-30T02:52:33.500Z,7.53
2018-01-30T02:52:59.618Z,7.61
2018-01-30T02:53:25.721Z,7.5
2018-01-30T02:53:51.816Z,7.53
2018-01-30T02:54:17.920Z,7.54
2018-01-30T02:54:44.023Z,7.51
2018-01-30T02:55:10.118Z,7.51
2018-01-30T02:55:36.225Z,7.54
2018-01-30T02:56:02.320Z,7.51
2018-01-30T02:56:28.424Z,7.5
2018-01-30T02:56:54.537Z,7.45
2018-01-30T02:57:20.634Z,7.35
2018-01-30T02:57:46.739Z,7.4
2018-01-30T02:58:12.853Z,7.45
2018-01-30T02:58:38.956Z,7.45
2018-01-30T02:59:05.064Z,7.51
2018-01-30T02:59:31.167Z,7.43
2018-01-30T02:59:57.269Z,7.43
2018-01-30T03:00:23.362Z,7.42
2018-01-30T03:00:49.463Z,7.47
2018-01-30T03:01:15.568Z,7.5
2018-01-30T03:01:41.670Z,7.43
2018-01-30T03:02:07.762Z,7.47
2018-01-30T03:02:33.866Z,7.42
2018-01-30T03:02:59.961Z,7.4
2018-01-30T03:03:26.057Z,7.43
2018-01-30T03:03:52.166Z,7.47
2018-01-30T03:04:18.280Z,7.42
2018-01-30T03:04:44.378Z,7.43
2018-01-30T03:05:10.498Z,7.35
2018-01-30T03:05:36.594Z,7.43
2018-01-30T03:06:02.698Z,7.43
2018-01-30T03:06:28.801Z,7.31
2018-01-30T03:06:54.895Z,7.25
2018-01-30T03:07:20.991Z,7.24
2018-01-30T03:07:47.096Z,7.31
2018-01-30T03:08:13.200Z,7.15
2018-01-30T03:08:39.297Z,7.28
2018-01-30T03:09:05.399Z,7.25
2018-01-30T03:09:31.497Z,7.29
2018-01-30T03:09:57.601Z,7.29
2018-01-30T03:10:23.700Z,7.25
2018-01-30T03:10:49.803Z,7.25
2018-01-30T03:11:15.909Z,7.2
2018-01-30T03:11:42.044Z,7.2
2018-01-30T03:12:08.150Z,7.2
2018-01-30T03:12:34.245Z,7.15
2018-01-30T03:13:00.345Z,7.21
2018-01-30T03:13:26.902Z,7.18
2018-01-30T03:13:52.977Z,7.21
2018-01-30T03:14:19.081Z,7.24
2018-01-30T03:14:45.182Z,7.2
2018-01-30T03:15:11.279Z,7.25
2018-01-30T03:15:37.378Z,7.2
2018-01-30T03:16:03.481Z,7.17
2018-01-30T03:16:29.583Z,7.18
2018-01-30T03:16:55.678Z,7.18
2018-01-30T03:17:21.782Z,7.23
2018-01-30T03:17:47.881Z,7.17
2018-01-30T03:18:13.976Z,7.2
2018-01-30T03:18:40.171Z,7.2
2018-01-30T03:19:06.604Z,7.21
2018-01-30T03:19:32.802Z,7.23
2018-01-30T03:19:58.991Z,7.18
2018-01-30T03:20:25.391Z,7.17
2018-01-30T03:20:51.492Z,7.24
2018-01-30T03:21:17.613Z,7.23
2018-01-30T03:21:43.719Z,7.2
2018-01-30T03:22:09.812Z,7.17
2018-01-30T03:22:35.913Z,7.18
2018-01-30T03:23:02.012Z,7.11
2018-01-30T03:23:28.113Z,6.97
2018-01-30T03:23:54.491Z,6.89
2018-01-30T03:24:20.631Z,6.84
2018-01-30T03:24:46.729Z,6.95
2018-01-30T03:25:12.841Z,6.96
2018-01-30T03:25:38.971Z,6.97
2018-01-30T03:26:05.131Z,7.02
2018-01-30T03:26:31.799Z,6.97
2018-01-30T03:26:57.906Z,7.07
2018-01-30T03:27:24.009Z,7.06
2018-01-30T03:27:50.111Z,6.97
2018-01-30T03:28:16.224Z,6.92
2018-01-30T03:28:42.321Z,7.02
2018-01-30T03:29:08.441Z,6.97
2018-01-30T03:29:34.659Z,7.03
2018-01-30T03:30:00.854Z,6.95
2018-01-30T03:30:27.007Z,7
2018-01-30T03:30:53.131Z,6.96
2018-01-30T03:31:19.244Z,6.93
2018-01-30T03:31:45.345Z,6.89
2018-01-30T03:32:11.441Z,6.96
2018-01-30T03:32:37.546Z,6.95
2018-01-30T03:33:03.689Z,6.88
2018-01-30T03:33:29.747Z,6.92
2018-01-30T03:33:55.865Z,6.88
2018-01-30T03:34:22.171Z,6.89
2018-01-30T03:34:48.505Z,6.92
2018-01-30T03:35:14.665Z,6.97
2018-01-30T03:35:40.801Z,6.96
2018-01-30T03:36:06.915Z,6.96
2018-01-30T03:36:33.022Z,6.92
2018-01-30T03:36:59.117Z,6.93
2018-01-30T03:37:25.512Z,6.88
2018-01-30T03:37:51.616Z,6.89
2018-01-30T03:38:17.854Z,6.85
2018-01-30T03:38:44.475Z,6.84
2018-01-30T03:39:10.595Z,6.84
2018-01-30T03:39:36.690Z,6.87
2018-01-30T03:40:02.790Z,6.88
2018-01-30T03:40:29.765Z,6.92
2018-01-30T03:40:55.845Z,6.89
2018-01-30T03:41:21.948Z,6.92
2018-01-30T03:41:48.055Z,6.89
2018-01-30T03:42:14.153Z,6.93
2018-01-30T03:42:40.252Z,6.96
2018-01-30T03:43:06.372Z,6.92
2018-01-30T03:43:32.477Z,6.88
2018-01-30T03:43:58.571Z,6.88
2018-01-30T03:44:24.671Z,6.95
2018-01-30T03:44:50.836Z,6.93
2018-01-30T03:45:16.936Z,6.97
2018-01-30T03:45:43.054Z,6.89
2018-01-30T03:46:09.159Z,6.79
2018-01-30T03:46:35.261Z,6.79
2018-01-30T03:47:01.366Z,6.75
2018-01-30T03:47:27.474Z,6.85
2018-01-30T03:47:53.656Z,6.78
2018-01-30T03:48:19.714Z,6.79
2018-01-30T03:48:45.817Z,6.74
2018-01-30T03:49:11.924Z,6.84
2018-01-30T03:49:38.342Z,6.78
2018-01-30T03:50:04.500Z,6.84
2018-01-30T03:50:30.926Z,6.88
2018-01-30T03:50:57.031Z,6.93
2018-01-30T03:51:23.125Z,6.93
2018-01-30T03:51:49.264Z,6.85
2018-01-30T03:52:15.409Z,6.92
2018-01-30T03:52:41.604Z,6.87
2018-01-30T03:53:07.717Z,6.89
2018-01-30T03:53:33.811Z,6.95
2018-01-30T03:53:59.912Z,6.96
2018-01-30T03:54:26.403Z,6.87
2018-01-30T03:54:52.531Z,6.84
2018-01-30T03:55:18.742Z,6.81
2018-01-30T03:55:44.860Z,6.77
2018-01-30T03:56:10.959Z,6.81
2018-01-30T03:56:37.564Z,6.77
2018-01-30T03:57:03.661Z,6.81
2018-01-30T03:57:29.764Z,6.75
2018-01-30T03:57:55.861Z,6.85
2018-01-30T03:58:21.963Z,6.79
2018-01-30T03:58:48.058Z,6.75
2018-01-30T03:59:14.158Z,6.75
2018-01-30T03:59:40.265Z,6.74
2018-01-30T04:00:06.368Z,6.75
2018-01-30T04:00:32.483Z,6.77
2018-01-30T04:00:58.632Z,6.77
2018-01-30T04:01:24.726Z,6.79
2018-01-30T04:01:50.901Z,6.78
2018-01-30T04:02:16.999Z,6.78
2018-01-30T04:02:43.103Z,6.79
2018-01-30T04:03:09.202Z,6.84
2018-01-30T04:03:35.320Z,6.82
2018-01-30T04:04:01.418Z,6.81
2018-01-30T04:04:27.515Z,6.75
2018-01-30T04:04:53.617Z,6.72
2018-01-30T04:05:19.718Z,6.78
2018-01-30T04:05:45.824Z,6.79
2018-01-30T04:06:12.142Z,6.81
2018-01-30T04:06:38.277Z,6.74
2018-01-30T04:07:04.380Z,6.75
2018-01-30T04:07:30.492Z,6.72
2018-01-30T04:07:56.602Z,6.66
2018-01-30T04:08:22.695Z,6.57
2018-01-30T04:08:48.809Z,6.59
2018-01-30T04:09:14.936Z,6.75
2018-01-30T04:09:41.032Z,6.64
2018-01-30T04:10:07.239Z,6.64
2018-01-30T04:10:33.284Z,6.63
2018-01-30T04:10:59.385Z,6.72
2018-01-30T04:11:25.492Z,6.57
2018-01-30T04:11:51.585Z,6.66
2018-01-30T04:12:17.685Z,6.7
2018-01-30T04:12:43.789Z,6.6
2018-01-30T04:13:09.885Z,6.75
2018-01-30T04:13:36.018Z,6.59
2018-01-30T04:14:02.126Z,6.64
2018-01-30T04:14:28.280Z,6.69
2018-01-30T04:14:54.385Z,6.75
2018-01-30T04:15:20.479Z,6.66
2018-01-30T04:15:46.577Z,6.66
2018-01-30T04:16:12.681Z,6.67
2018-01-30T04:16:38.779Z,6.67
2018-01-30T04:17:04.879Z,6.74
2018-01-30T04:17:30.979Z,6.64
2018-01-30T04:17:57.131Z,6.69
2018-01-30T04:18:23.224Z,6.57
2018-01-30T04:18:49.329Z,6.59
2018-01-30T04:19:15.426Z,6.7
2018-01-30T04:19:41.526Z,6.69
2018-01-30T04:20:07.646Z,6.6
2018-01-30T04:20:33.762Z,6.6
2018-01-30T04:20:59.866Z,6.6
2018-01-30T04:21:25.977Z,6.52
2018-01-30T04:21:52.099Z,6.57
2018-01-30T04:22:18.194Z,6.63
2018-01-30T04:22:44.294Z,6.63
2018-01-30T04:23:10.398Z,6.62
2018-01-30T04:23:36.530Z,6.62
2018-01-30T04:24:02.636Z,6.56
2018-01-30T04:24:28.732Z,6.52
2018-01-30T04:24:54.835Z,6.67
2018-01-30T04:25:20.930Z,6.7
2018-01-30T04:25:47.036Z,6.69
2018-01-30T04:26:13.140Z,6.52
2018-01-30T04:26:39.334Z,6.62
2018-01-30T04:27:05.478Z,6.62
2018-01-30T04:27:31.572Z,6.59
2018-01-30T04:27:57.671Z,6.57
2018-01-30T04:28:23.774Z,6.62
2018-01-30T04:28:49.878Z,6.56
2018-01-30T04:29:15.980Z,6.56
2018-01-30T04:29:42.078Z,6.56
2018-01-30T04:30:08.185Z,6.62
2018-01-30T04:30:34.285Z,6.6
2018-01-30T04:31:00.383Z,6.46
2018-01-30T04:31:26.490Z,6.6
2018-01-30T04:31:52.622Z,6.6
2018-01-30T04:32:18.697Z,6.56
2018-01-30T04:32:44.796Z,6.59
2018-01-30T04:33:10.896Z,6.63
2018-01-30T04:33:36.999Z,6.51
2018-01-30T04:34:03.099Z,6.59
2018-01-30T04:34:29.449Z,6.62
2018-01-30T04:34:55.551Z,6.6
2018-01-30T04:35:21.668Z,6.57
2018-01-30T04:35:47.765Z,6.59
2018-01-30T04:36:13.873Z,6.59
2018-01-30T04:36:39.968Z,6.57
2018-01-30T04:37:06.068Z,6.52
2018-01-30T04:37:32.166Z,6.54
2018-01-30T04:37:58.269Z,6.45
2018-01-30T04:38:24.397Z,6.41
2018-01-30T04:38:50.470Z,6.41
2018-01-30T04:39:16.581Z,6.41
2018-01-30T04:39:42.673Z,6.39
2018-01-30T04:40:08.779Z,6.49
2018-01-30T04:40:34.876Z,6.44
2018-01-30T04:41:00.967Z,6.42
2018-01-30T04:41:27.071Z,6.41
2018-01-30T04:41:53.192Z,6.39
2018-01-30T04:42:19.298Z,6.44
2018-01-30T04:42:45.439Z,6.42
2018-01-30T04:43:11.624Z,6.36
2018-01-30T04:43:37.992Z,6.44
2018-01-30T04:44:04.092Z,6.39
2018-01-30T04:44:30.194Z,6.41
2018-01-30T04:44:56.294Z,6.36
2018-01-30T04:45:22.394Z,6.39
2018-01-30T04:45:48.490Z,6.36
2018-01-30T04:46:14.586Z,6.35
2018-01-30T04:46:40.926Z,6.39
2018-01-30T04:47:07.047Z,6.35
2018-01-30T04:47:33.484Z,6.41
2018-01-30T04:47:59.647Z,6.39
2018-01-30T04:48:25.751Z,6.41
2018-01-30T04:48:51.849Z,6.38
2018-01-30T04:49:17.949Z,6.33
2018-01-30T04:49:44.050Z,6.39
2018-01-30T04:50:10.155Z,6.3
2018-01-30T04:50:36.255Z,6.35
2018-01-30T04:51:02.353Z,6.28
2018-01-30T04:51:28.478Z,6.33
2018-01-30T04:51:54.593Z,6.35
2018-01-30T04:52:20.698Z,6.42
2018-01-30T04:52:46.834Z,6.33
2018-01-30T04:53:12.939Z,6.33
2018-01-30T04:53:39.035Z,6.39
2018-01-30T04:54:05.140Z,6.38
2018-01-30T04:54:31.236Z,6.31
2018-01-30T04:54:57.336Z,6.35
2018-01-30T04:55:23.456Z,6.3
2018-01-30T04:55:49.563Z,6.41
2018-01-30T04:56:15.692Z,6.33
2018-01-30T04:56:41.777Z,6.3
2018-01-30T04:57:07.882Z,6.33
2018-01-30T04:57:33.976Z,6.33
2018-01-30T04:58:00.084Z,6.42
2018-01-30T04:58:26.181Z,6.44
2018-01-30T04:58:52.284Z,6.44
2018-01-30T04:59:18.403Z,6.45
2018-01-30T04:59:44.504Z,6.52
2018-01-30T05:00:10.616Z,6.49
2018-01-30T05:00:36.711Z,6.46
2018-01-30T05:01:02.817Z,6.51
2018-01-30T05:01:28.914Z,6.49
2018-01-30T05:01:55.026Z,6.56
2018-01-30T05:02:21.121Z,6.54
2018-01-30T05:02:47.219Z,6.52
2018-01-30T05:03:13.322Z,6.63
2018-01-30T05:03:39.676Z,6.59
2018-01-30T05:04:05.783Z,6.56
2018-01-30T05:04:31.880Z,6.49
2018-01-30T05:04:57.977Z,6.51
2018-01-30T05:05:24.078Z,6.49
2018-01-30T05:05:50.192Z,6.49
2018-01-30T05:06:16.288Z,6.52
2018-01-30T05:06:42.392Z,6.44
2018-01-30T05:07:08.493Z,6.44
2018-01-30T05:07:34.599Z,6.46
2018-01-30T05:08:00.704Z,6.46
2018-01-30T05:08:26.813Z,6.45
2018-01-30T05:08:52.912Z,6.44
2018-01-30T05:09:19.013Z,6.45
2018-01-30T05:09:45.108Z,6.39
2018-01-30T05:10:11.209Z,6.44
2018-01-30T05:10:37.312Z,6.49
2018-01-30T05:11:03.408Z,6.44
2018-01-30T05:11:29.503Z,6.54
2018-01-30T05:11:55.606Z,6.56
2018-01-30T05:12:21.704Z,6.57
2018-01-30T05:12:47.809Z,6.62
2018-01-30T05:13:13.914Z,6.63
2018-01-30T05:13:40.010Z,6.6
2018-01-30T05:14:06.115Z,6.63
2018-01-30T05:14:32.211Z,6.59
2018-01-30T05:14:58.309Z,6.62
2018-01-30T05:15:24.410Z,6.6
2018-01-30T05:15:50.767Z,6.6
2018-01-30T05:16:16.860Z,6.57
2018-01-30T05:16:42.962Z,6.67
2018-01-30T05:17:09.070Z,6.72
2018-01-30T05:17:35.173Z,6.57
2018-01-30T05:18:01.266Z,6.6
2018-01-30T05:18:27.371Z,6.59
2018-01-30T05:18:53.468Z,6.74
2018-01-30T05:19:19.564Z,6.72
2018-01-30T05:19:45.690Z,6.7
2018-01-30T05:20:11.804Z,6.62
2018-01-30T05:20:37.911Z,6.59
2018-01-30T05:21:04.007Z,6.56
2018-01-30T05:21:30.114Z,6.6
2018-01-30T05:21:56.210Z,6.56
2018-01-30T05:22:22.313Z,6.67
2018-01-30T05:22:48.409Z,6.7
2018-01-30T05:23:14.511Z,6.7
2018-01-30T05:23:40.632Z,6.67
2018-01-30T05:24:06.744Z,6.72
2018-01-30T05:24:32.847Z,6.67
2018-01-30T05:24:59.190Z,6.66
2018-01-30T05:25:25.318Z,6.57
2018-01-30T05:25:51.408Z,6.56
2018-01-30T05:26:17.510Z,6.7
2018-01-30T05:26:43.631Z,6.75
2018-01-30T05:27:09.754Z,6.6
2018-01-30T05:27:35.854Z,6.57
2018-01-30T05:28:01.959Z,6.59
2018-01-30T05:28:28.061Z,6.57
2018-01-30T05:28:54.160Z,6.57
2018-01-30T05:29:20.273Z,6.56
2018-01-30T05:29:46.410Z,6.56
2018-01-30T05:30:12.534Z,6.59
2018-01-30T05:30:38.634Z,6.62
2018-01-30T05:31:04.730Z,6.57
2018-01-30T05:31:30.829Z,6.51
2018-01-30T05:31:56.937Z,6.54
2018-01-30T05:32:23.038Z,6.62
2018-01-30T05:32:49.132Z,6.56
2018-01-30T05:33:15.940Z,6.51
2018-01-30T05:33:41.988Z,6.62
2018-01-30T05:34:08.362Z,6.57
2018-01-30T05:34:34.458Z,6.59
2018-01-30T05:35:00.644Z,6.44
2018-01-30T05:35:26.747Z,6.46
2018-01-30T05:35:52.844Z,6.44
2018-01-30T05:36:18.951Z,6.42
2018-01-30T05:36:45.049Z,6.46
2018-01-30T05:37:11.154Z,6.54
2018-01-30T05:37:37.258Z,6.6
2018-01-30T05:38:03.360Z,6.56
2018-01-30T05:38:29.455Z,6.49
2018-01-30T05:38:55.888Z,6.54
2018-01-30T05:39:22.016Z,6.54
2018-01-30T05:39:48.111Z,6.44
2018-01-30T05:40:14.210Z,6.45
2018-01-30T05:40:40.311Z,6.49
2018-01-30T05:41:06.411Z,6.63
2018-01-30T05:41:32.517Z,6.63
2018-01-30T05:41:58.611Z,6.57
2018-01-30T05:42:24.714Z,6.66
2018-01-30T05:42:50.867Z,6.75
2018-01-30T05:43:16.967Z,6.62
2018-01-30T05:43:43.063Z,6.57
2018-01-30T05:44:09.167Z,6.54
2018-01-30T05:44:35.270Z,6.54
2018-01-30T05:45:01.366Z,6.51
2018-01-30T05:45:27.470Z,6.49
2018-01-30T05:45:53.574Z,6.49
2018-01-30T05:46:19.675Z,6.41
2018-01-30T05:46:45.785Z,6.51
2018-01-30T05:47:11.892Z,6.56
2018-01-30T05:47:37.995Z,6.6
2018-01-30T05:48:04.090Z,6.6
2018-01-30T05:48:30.189Z,6.62
2018-01-30T05:48:56.312Z,6.62
2018-01-30T05:49:22.409Z,6.6